Time;durP1;ratioP1;P1;durP2;ratioP2;P2;SDS_P1;SDS_P2;PMS_P1;PMS_P2;Temp;Humidity;BMP_temperature;BMP_pressure;BME280_temperature;BME280_humidity;BME280_pressure;Samples;Min_cycle;Max_cycle;Signal;HPM_P1;HPM_P2
2022/11/06 00:01:08;;;;;;;10.47;3.60;;;11.30;99.90;;;;;;4996379;28;20241;-68
2022/11/06 00:03:35;;;;;;;7.43;3.57;;;11.40;99.90;;;;;;4996019;28;20179;-68
2022/11/06 00:08:53;;;;;;;6.07;3.47;;;11.40;99.90;;;;;;4996529;28;20175;-68
2022/11/06 00:11:19;;;;;;;12.07;3.40;;;11.40;99.90;;;;;;4995233;28;20186;-67
2022/11/06 00:13:46;;;;;;;9.47;3.30;;;11.40;99.90;;;;;;4996077;28;20175;-68
2022/11/06 00:16:13;;;;;;;7.30;3.10;;;11.30;99.90;;;;;;4996305;28;20262;-68
2022/11/06 00:18:40;;;;;;;12.77;3.50;;;11.40;99.90;;;;;;4996440;28;20234;-68
2022/11/06 00:21:21;;;;;;;8.23;3.37;;;11.40;99.90;;;;;;4994174;28;20305;-68
2022/11/06 00:23:47;;;;;;;9.93;3.17;;;11.50;99.90;;;;;;4996189;28;20164;-67
2022/11/06 00:26:15;;;;;;;8.30;3.40;;;11.50;99.90;;;;;;4996064;28;20238;-67
2022/11/06 00:28:41;;;;;;;11.00;3.30;;;11.50;99.90;;;;;;4996271;28;20168;-67
2022/11/06 00:31:09;;;;;;;9.03;3.30;;;11.50;99.90;;;;;;4995590;28;20171;-68
2022/11/06 00:33:36;;;;;;;7.13;3.40;;;11.60;99.90;;;;;;4996062;28;20187;-68
2022/11/06 00:36:03;;;;;;;7.13;3.20;;;11.60;99.90;;;;;;4996103;28;20228;-68
2022/11/06 00:38:29;;;;;;;7.60;3.20;;;11.60;99.90;;;;;;4995957;28;20171;-68
2022/11/06 00:40:55;;;;;;;6.37;2.70;;;11.60;99.90;;;;;;4994375;28;20214;-68
2022/11/06 00:43:20;;;;;;;8.43;3.23;;;11.60;99.90;;;;;;4995703;28;20178;-68
2022/11/06 00:45:46;;;;;;;5.47;2.60;;;11.60;99.90;;;;;;4995459;28;20179;-69
2022/11/06 00:48:11;;;;;;;5.47;2.97;;;11.60;99.90;;;;;;4995712;28;20179;-68
2022/11/06 00:50:37;;;;;;;9.93;3.10;;;11.60;99.90;;;;;;4994594;28;20261;-68
2022/11/06 00:53:03;;;;;;;7.07;3.27;;;11.60;99.90;;;;;;4994367;28;20194;-69
2022/11/06 00:55:28;;;;;;;7.47;2.93;;;11.70;99.90;;;;;;4995372;28;20257;-68
2022/11/06 00:57:54;;;;;;;6.53;3.50;;;11.60;99.90;;;;;;4995602;28;20616;-69
2022/11/06 01:00:21;;;;;;;8.50;3.17;;;11.60;99.90;;;;;;4994950;28;20203;-69
2022/11/06 01:02:46;;;;;;;11.27;3.30;;;11.70;99.90;;;;;;4995582;28;20178;-68
2022/11/06 01:05:12;;;;;;;8.30;3.17;;;11.60;99.90;;;;;;4995413;28;20179;-68
2022/11/06 01:07:39;;;;;;;6.90;3.17;;;11.60;99.90;;;;;;4995446;28;20175;-69
2022/11/06 01:10:05;;;;;;;10.37;3.07;;;11.60;99.90;;;;;;4993930;28;20194;-68
2022/11/06 01:12:31;;;;;;;8.93;3.30;;;11.60;99.90;;;;;;4995508;28;20171;-68
2022/11/06 01:14:57;;;;;;;7.93;3.10;;;11.60;99.90;;;;;;4994986;28;20265;-68
2022/11/06 01:17:23;;;;;;;9.30;3.17;;;11.70;99.90;;;;;;4995057;28;20623;-68
2022/11/06 01:19:48;;;;;;;8.03;2.70;;;11.80;99.90;;;;;;4995119;28;20182;-69
2022/11/06 01:22:14;;;;;;;4.67;2.70;;;11.70;99.90;;;;;;4993838;28;20301;-68
2022/11/06 01:24:40;;;;;;;5.17;2.73;;;11.70;99.90;;;;;;4995092;28;20258;-68
2022/11/06 01:27:06;;;;;;;5.90;2.80;;;11.70;99.90;;;;;;4994956;28;20203;-68
2022/11/06 01:29:32;;;;;;;7.77;2.63;;;11.70;99.90;;;;;;4994644;28;20262;-68
2022/11/06 01:31:58;;;;;;;6.37;3.17;;;11.70;99.90;;;;;;4993277;28;20707;-68
2022/11/06 01:34:23;;;;;;;6.77;3.10;;;11.70;99.90;;;;;;4994008;28;20299;-68
2022/11/06 01:36:49;;;;;;;7.57;3.10;;;11.70;99.90;;;;;;4994708;28;20174;-68
2022/11/06 01:39:15;;;;;;;10.27;2.83;;;11.70;99.90;;;;;;4993368;28;20664;-68
2022/11/06 01:41:44;;;;;;;9.03;2.70;;;11.80;99.90;;;;;;4994735;28;20202;-69
2022/11/06 01:44:31;;;;;;;5.37;2.73;;;11.80;99.90;;;;;;4994380;28;20163;-68
2022/11/06 01:46:57;;;;;;;9.03;3.10;;;11.80;99.90;;;;;;4994665;28;20186;-68
2022/11/06 01:49:24;;;;;;;6.93;2.20;;;11.70;99.90;;;;;;4994531;28;20167;-68
2022/11/06 01:51:56;;;;;;;5.80;2.90;;;11.70;99.90;;;;;;4994595;28;20635;-68
2022/11/06 01:54:24;;;;;;;7.63;3.23;;;11.70;99.90;;;;;;4994651;28;20178;-69
2022/11/06 01:56:53;;;;;;;6.80;3.10;;;11.60;99.90;;;;;;4994603;28;20639;-68
2022/11/06 01:59:23;;;;;;;6.13;2.50;;;11.70;99.90;;;;;;4994257;28;20237;-69
2022/11/06 02:01:49;;;;;;;5.53;2.70;;;11.60;99.90;;;;;;4994426;28;20234;-69
2022/11/06 02:04:25;;;;;;;8.70;3.10;;;11.60;99.90;;;;;;4994232;28;20211;-68
2022/11/06 02:06:51;;;;;;;10.17;2.93;;;11.50;99.90;;;;;;4994333;28;20171;-68
2022/11/06 02:09:18;;;;;;;6.53;3.27;;;11.50;99.90;;;;;;4994318;28;20624;-67
2022/11/06 02:11:57;;;;;;;9.60;3.00;;;11.50;99.90;;;;;;4994175;28;20175;-68
2022/11/06 02:14:47;;;;;;;7.13;2.60;;;11.50;99.90;;;;;;4993736;28;20199;-67
2022/11/06 02:17:27;;;;;;;6.73;2.67;;;11.40;99.90;;;;;;4994103;28;20278;-67
2022/11/06 02:20:06;;;;;;;6.10;2.90;;;11.40;99.90;;;;;;4994122;28;20211;-68
2022/11/06 02:23:08;;;;;;;8.43;2.90;;;11.30;99.90;;;;;;4994106;28;20269;-68
2022/11/06 02:25:53;;;;;;;8.03;3.03;;;11.30;99.90;;;;;;4993912;28;20170;-69
2022/11/06 02:28:53;;;;;;;7.43;2.90;;;11.30;99.90;;;;;;4993636;28;20175;-69
2022/11/06 02:31:25;;;;;;;6.80;2.63;;;11.40;99.90;;;;;;4993457;28;20175;-67
2022/11/06 02:33:56;;;;;;;4.60;2.90;;;11.40;99.90;;;;;;4993842;28;20182;-68
2022/11/06 02:36:29;;;;;;;5.53;2.90;;;11.40;99.90;;;;;;4993834;28;20167;-68
2022/11/06 02:39:04;;;;;;;6.50;2.63;;;11.40;99.90;;;;;;4992617;28;20180;-68
2022/11/06 02:41:35;;;;;;;8.73;2.87;;;11.40;99.90;;;;;;4993410;28;20233;-68
2022/11/06 02:44:06;;;;;;;8.37;2.67;;;11.40;99.90;;;;;;4994087;28;20221;-69
2022/11/06 02:46:38;;;;;;;4.80;2.70;;;11.40;99.90;;;;;;5000353;28;20167;-68
2022/11/06 02:49:12;;;;;;;9.50;3.00;;;11.50;99.90;;;;;;5000297;28;20199;-67
2022/11/06 02:51:42;;;;;;;5.17;2.60;;;11.50;99.90;;;;;;5000145;28;20651;-67
2022/11/06 02:54:09;;;;;;;4.60;2.80;;;11.50;99.90;;;;;;5000098;28;20258;-67
2022/11/06 02:56:40;;;;;;;6.93;2.53;;;11.50;99.90;;;;;;4999883;28;20175;-68
2022/11/06 02:59:12;;;;;;;3.73;2.20;;;11.60;99.90;;;;;;4998990;28;20194;-68
2022/11/06 03:01:50;;;;;;;5.80;2.57;;;11.60;99.90;;;;;;5000093;28;20214;-68
2022/11/06 03:04:21;;;;;;;4.50;2.70;;;11.70;99.90;;;;;;4998729;28;20575;-67
2022/11/06 03:06:57;;;;;;;6.50;2.70;;;11.70;99.90;;;;;;4998716;28;20669;-68
2022/11/06 03:09:27;;;;;;;6.00;2.20;;;11.80;99.90;;;;;;5000443;28;20694;-68
2022/11/06 03:12:03;;;;;;;6.27;2.40;;;11.70;99.90;;;;;;4999637;28;20175;-68
2022/11/06 03:14:35;;;;;;;4.30;2.37;;;11.70;99.90;;;;;;4999998;28;20202;-69
2022/11/06 03:17:15;;;;;;;5.80;2.40;;;11.70;99.90;;;;;;4999865;28;20550;-68
2022/11/06 03:19:47;;;;;;;7.40;2.70;;;11.70;99.90;;;;;;4999964;28;20173;-68
2022/11/06 03:22:13;;;;;;;7.60;2.03;;;11.70;99.90;;;;;;4999691;28;20211;-68
2022/11/06 03:24:46;;;;;;;4.73;2.27;;;11.70;99.90;;;;;;4999983;28;20254;-67
2022/11/06 03:27:31;;;;;;;5.87;2.43;;;11.70;99.90;;;;;;5000114;28;20218;-68
2022/11/06 03:30:04;;;;;;;6.23;2.90;;;11.70;99.90;;;;;;4999971;28;20198;-68
2022/11/06 03:32:37;;;;;;;7.00;2.67;;;11.60;99.90;;;;;;4999454;28;20250;-67
2022/11/06 03:35:11;;;;;;;6.77;2.63;;;11.60;99.90;;;;;;4999926;28;20191;-68
2022/11/06 03:37:45;;;;;;;7.67;2.93;;;11.50;99.90;;;;;;5000052;28;20250;-68
2022/11/06 03:40:17;;;;;;;4.50;2.23;;;11.50;99.90;;;;;;4999519;28;20183;-68
2022/11/06 03:42:44;;;;;;;3.60;2.13;;;11.50;99.90;;;;;;4998843;28;20709;-68
2022/11/06 03:45:15;;;;;;;7.47;2.53;;;11.50;99.90;;;;;;4999762;28;20255;-68
2022/11/06 03:47:52;;;;;;;6.40;2.30;;;11.50;99.90;;;;;;5000014;28;20250;-68
2022/11/06 03:50:36;;;;;;;7.57;2.47;;;11.50;99.90;;;;;;4999736;28;20218;-69
2022/11/06 03:53:14;;;;;;;6.00;2.23;;;11.50;99.90;;;;;;4999871;28;20170;-68
2022/11/06 03:55:52;;;;;;;10.27;2.37;;;11.50;99.90;;;;;;4998656;28;20171;-68
2022/11/06 03:58:22;;;;;;;13.60;2.70;;;11.60;99.90;;;;;;4996539;28;20182;-68
2022/11/06 04:00:49;;;;;;;5.93;2.30;;;11.60;99.90;;;;;;4996516;28;20203;-68
2022/11/06 04:03:48;;;;;;;5.03;2.30;;;11.60;99.90;;;;;;4996575;28;20167;-67
2022/11/06 04:06:26;;;;;;;6.50;1.97;;;11.60;99.90;;;;;;4996402;28;20203;-67
2022/11/06 04:14:27;;;;;;;5.07;2.10;;;11.50;99.90;;;;;;4996590;28;20281;-67
2022/11/06 04:16:58;;;;;;;6.17;2.10;;;11.40;99.90;;;;;;4996244;28;20237;-68
2022/11/06 04:19:24;;;;;;;6.20;2.27;;;11.50;99.90;;;;;;4996128;28;20183;-68
2022/11/06 04:22:27;;;;;;;6.27;2.40;;;11.50;99.90;;;;;;4996106;28;20223;-67
2022/11/06 04:28:07;;;;;;;7.13;2.60;;;11.40;99.90;;;;;;4995958;28;20222;-68
2022/11/06 04:30:42;;;;;;;7.03;2.53;;;11.30;99.90;;;;;;4996147;28;20524;-69
2022/11/06 04:33:24;;;;;;;7.07;2.57;;;11.40;99.90;;;;;;4995664;28;20226;-68
2022/11/06 04:36:08;;;;;;;4.70;2.60;;;11.30;99.90;;;;;;4995858;28;20179;-68
2022/11/06 04:39:00;;;;;;;6.33;2.40;;;11.30;99.90;;;;;;4995400;28;20183;-68
2022/11/06 04:41:34;;;;;;;5.87;2.07;;;11.30;99.90;;;;;;4995846;28;20246;-68
2022/11/06 04:44:13;;;;;;;8.17;2.23;;;11.40;99.90;;;;;;4995600;28;20167;-68
2022/11/06 04:46:46;;;;;;;8.83;2.47;;;11.40;99.90;;;;;;4995767;28;20175;-67
2022/11/06 04:49:13;;;;;;;6.40;2.67;;;11.30;99.90;;;;;;4995581;28;20182;-68
2022/11/06 04:51:39;;;;;;;6.93;2.50;;;11.30;99.90;;;;;;4995542;28;20264;-68
2022/11/06 04:54:08;;;;;;;4.73;2.17;;;11.30;99.90;;;;;;4995244;28;20646;-68
2022/11/06 04:56:35;;;;;;;6.47;2.23;;;11.30;99.90;;;;;;4995676;28;20214;-68
2022/11/06 04:59:02;;;;;;;7.47;2.53;;;11.30;99.90;;;;;;4995522;28;20184;-67
2022/11/06 05:01:28;;;;;;;5.70;2.37;;;11.30;99.90;;;;;;4994988;28;20213;-68
2022/11/06 05:03:54;;;;;;;3.33;2.70;;;11.30;99.90;;;;;;4994118;28;20179;-68
2022/11/06 05:06:19;;;;;;;5.23;2.70;;;11.30;99.90;;;;;;4994681;28;20187;-67
2022/11/06 05:08:45;;;;;;;6.33;2.60;;;11.30;99.90;;;;;;4995084;28;20724;-67
2022/11/06 05:11:10;;;;;;;6.40;2.67;;;11.20;99.90;;;;;;4995277;28;20199;-68
2022/11/06 05:13:37;;;;;;;7.20;2.40;;;11.20;99.90;;;;;;4993586;28;20191;-68
2022/11/06 05:16:03;;;;;;;5.73;2.47;;;11.30;99.90;;;;;;4994957;28;20183;-67
2022/11/06 05:18:29;;;;;;;4.87;2.50;;;11.30;99.90;;;;;;4995210;28;20191;-68
2022/11/06 05:23:43;;;;;;;10.07;2.40;;;11.40;99.90;;;;;;4995492;28;20182;-67
2022/11/06 05:26:08;;;;;;;4.50;2.37;;;11.40;99.90;;;;;;4994773;28;20537;-68
2022/11/06 05:28:34;;;;;;;4.10;2.27;;;11.40;99.90;;;;;;4994877;28;20168;-68
2022/11/06 05:30:59;;;;;;;8.67;2.70;;;11.40;99.90;;;;;;4994971;28;20266;-70
2022/11/06 05:33:25;;;;;;;7.30;2.40;;;11.50;99.90;;;;;;4993407;28;20223;-68
2022/11/06 05:35:51;;;;;;;5.53;2.80;;;11.40;99.90;;;;;;4994416;28;20190;-67
2022/11/06 05:38:16;;;;;;;11.63;2.50;;;11.50;99.90;;;;;;4994852;28;20203;-67
2022/11/06 05:40:42;;;;;;;6.53;2.50;;;11.50;99.90;;;;;;4994702;28;20340;-68
2022/11/06 05:43:08;;;;;;;4.37;2.50;;;11.50;99.90;;;;;;4994599;28;20645;-68
2022/11/06 05:45:33;;;;;;;4.40;2.37;;;11.60;99.90;;;;;;4994130;28;20222;-68
2022/11/06 05:47:59;;;;;;;4.73;2.77;;;11.60;99.90;;;;;;4994605;28;20172;-68
2022/11/06 05:50:24;;;;;;;6.60;2.50;;;11.60;99.90;;;;;;4993777;28;20183;-68
2022/11/06 05:52:50;;;;;;;4.77;2.17;;;11.60;99.90;;;;;;4994279;28;20171;-68
2022/11/06 05:55:16;;;;;;;6.07;2.67;;;11.70;99.90;;;;;;4994300;28;20175;-68
2022/11/06 05:57:42;;;;;;;5.03;2.57;;;11.70;99.90;;;;;;4994145;28;20531;-68
2022/11/06 06:00:09;;;;;;;3.17;2.33;;;11.80;99.90;;;;;;4994058;28;20662;-67
2022/11/06 06:02:35;;;;;;;4.77;2.23;;;11.80;99.90;;;;;;4994268;28;20640;-67
2022/11/06 06:05:02;;;;;;;5.17;2.27;;;11.80;99.90;;;;;;4993938;28;20171;-68
2022/11/06 06:07:27;;;;;;;5.70;2.23;;;11.80;99.90;;;;;;4992807;28;20623;-68
2022/11/06 06:09:53;;;;;;;3.97;2.30;;;11.80;99.90;;;;;;4992783;28;20195;-68
2022/11/06 06:12:19;;;;;;;5.57;2.47;;;11.80;99.90;;;;;;4993651;28;20179;-67
2022/11/06 06:14:45;;;;;;;7.40;2.50;;;11.80;99.90;;;;;;4994071;28;20589;-66
2022/11/06 06:17:10;;;;;;;7.50;2.23;;;11.90;99.90;;;;;;4992572;28;20182;-68
2022/11/06 06:19:36;;;;;;;4.40;2.33;;;11.90;99.90;;;;;;4993238;28;20179;-68
2022/11/06 06:22:01;;;;;;;7.47;2.33;;;11.90;99.90;;;;;;4992268;28;20298;-68
2022/11/06 06:24:27;;;;;;;4.53;2.53;;;12.00;99.90;;;;;;4993884;28;20635;-67
2022/11/06 06:26:52;;;;;;;5.00;2.00;;;12.00;99.90;;;;;;4993987;28;20654;-67
2022/11/06 06:29:18;;;;;;;8.20;2.23;;;12.00;99.90;;;;;;4993749;28;20176;-68
2022/11/06 06:31:44;;;;;;;3.83;2.43;;;12.00;99.90;;;;;;4993651;28;20731;-67
2022/11/06 06:34:09;;;;;;;4.60;2.20;;;12.10;99.90;;;;;;4992995;28;20179;-67
2022/11/06 06:36:35;;;;;;;5.93;2.40;;;12.10;99.90;;;;;;4993822;28;20179;-68
2022/11/06 06:39:00;;;;;;;5.27;2.10;;;12.10;99.90;;;;;;4993743;28;20171;-68
2022/11/06 06:41:26;;;;;;;4.03;1.80;;;12.20;99.90;;;;;;4993458;28;20309;-68
2022/11/06 06:43:51;;;;;;;5.53;2.30;;;12.10;99.90;;;;;;4993352;28;20225;-68
2022/11/06 06:46:17;;;;;;;4.70;2.20;;;12.20;99.90;;;;;;4993356;28;20182;-68
2022/11/06 06:48:43;;;;;;;3.50;2.00;;;12.20;99.90;;;;;;4993549;28;20682;-67
2022/11/06 06:51:08;;;;;;;5.00;2.43;;;12.20;99.90;;;;;;4993667;28;20176;-68
2022/11/06 06:53:35;;;;;;;4.50;1.77;;;12.30;99.90;;;;;;4993293;28;20251;-67
2022/11/06 06:56:01;;;;;;;4.30;1.97;;;12.20;99.90;;;;;;4993380;28;20179;-68
2022/11/06 06:58:27;;;;;;;6.40;2.40;;;12.30;99.90;;;;;;4993172;28;20171;-68
2022/11/06 07:00:54;;;;;;;8.87;1.87;;;12.30;99.90;;;;;;4993410;28;20210;-67
2022/11/06 07:03:20;;;;;;;5.63;2.10;;;12.30;99.90;;;;;;4993025;28;20167;-67
2022/11/06 07:05:46;;;;;;;7.77;2.40;;;12.30;99.90;;;;;;4993676;28;20673;-68
2022/11/06 07:08:11;;;;;;;6.67;2.27;;;12.40;99.90;;;;;;4993471;28;20167;-67
2022/11/06 07:10:37;;;;;;;5.13;2.00;;;12.40;99.90;;;;;;4993239;28;20275;-68
2022/11/06 07:13:03;;;;;;;6.67;2.10;;;12.40;99.90;;;;;;4993213;28;20198;-68
2022/11/06 07:15:30;;;;;;;4.67;1.83;;;12.40;99.90;;;;;;4993462;28;20282;-67
2022/11/06 07:18:03;;;;;;;7.43;2.10;;;12.30;99.90;;;;;;4992842;28;20601;-67
2022/11/06 07:20:29;;;;;;;3.90;2.13;;;12.30;99.90;;;;;;4993366;28;20250;-67
2022/11/06 07:22:55;;;;;;;6.47;2.23;;;12.30;99.90;;;;;;4993298;28;20575;-67
2022/11/06 07:25:20;;;;;;;4.30;2.30;;;12.40;99.90;;;;;;4992811;28;20246;-67
2022/11/06 07:27:46;;;;;;;2.60;1.83;;;12.50;99.90;;;;;;4993111;28;20190;-67
2022/11/06 07:30:12;;;;;;;2.93;1.97;;;12.50;99.90;;;;;;4993557;28;20168;-68
2022/11/06 07:32:38;;;;;;;3.63;1.73;;;12.50;99.90;;;;;;4994944;28;20273;-68
2022/11/06 07:35:03;;;;;;;6.17;2.00;;;12.60;99.90;;;;;;4997030;28;20263;-67
2022/11/06 07:37:29;;;;;;;3.57;2.13;;;12.60;99.90;;;;;;4995473;28;20182;-67
2022/11/06 07:39:55;;;;;;;4.03;2.23;;;12.60;99.90;;;;;;4996572;28;20175;-68
2022/11/06 07:42:20;;;;;;;5.97;2.10;;;12.60;99.90;;;;;;4997054;28;20202;-68
2022/11/06 07:44:46;;;;;;;3.47;1.90;;;12.70;99.90;;;;;;4996581;28;20226;-67
2022/11/06 07:47:11;;;;;;;8.00;2.20;;;12.80;99.90;;;;;;4996145;28;20262;-68
2022/11/06 07:49:37;;;;;;;2.80;1.90;;;12.80;99.90;;;;;;4996472;28;20620;-68
2022/11/06 07:52:04;;;;;;;5.30;2.27;;;13.00;99.90;;;;;;4996140;28;20250;-68
2022/11/06 07:54:30;;;;;;;4.63;2.03;;;13.00;99.90;;;;;;4995037;28;20611;-68
2022/11/06 07:56:55;;;;;;;5.70;2.40;;;13.00;99.90;;;;;;4996378;28;20254;-68
2022/11/06 07:59:21;;;;;;;6.33;2.10;;;13.10;99.90;;;;;;4996181;28;20198;-68
2022/11/06 08:01:47;;;;;;;2.47;1.97;;;13.10;99.90;;;;;;4996017;28;20203;-68
2022/11/06 08:04:12;;;;;;;4.77;2.20;;;13.10;99.90;;;;;;4995195;28;20533;-68
2022/11/06 08:06:38;;;;;;;3.00;1.80;;;13.10;99.90;;;;;;4996054;28;20175;-68
2022/11/06 08:09:06;;;;;;;5.70;2.17;;;13.10;99.90;;;;;;4996251;28;20226;-68
2022/11/06 08:11:31;;;;;;;2.50;2.07;;;13.10;99.90;;;;;;4995941;28;20175;-68
2022/11/06 08:13:59;;;;;;;3.03;1.90;;;13.20;99.90;;;;;;4995885;28;20253;-67
2022/11/06 08:16:25;;;;;;;5.43;2.00;;;13.10;99.90;;;;;;4995527;28;20234;-67
2022/11/06 08:18:51;;;;;;;8.23;2.10;;;13.20;99.90;;;;;;4996250;28;20183;-69
2022/11/06 08:21:16;;;;;;;8.37;1.90;;;13.20;99.90;;;;;;4995739;28;20225;-68
2022/11/06 08:23:42;;;;;;;7.97;2.00;;;13.10;99.90;;;;;;4996089;28;20176;-68
2022/11/06 08:26:07;;;;;;;5.90;2.00;;;13.30;99.90;;;;;;4995801;28;20257;-68
2022/11/06 08:28:34;;;;;;;5.73;2.30;;;13.20;99.90;;;;;;4995820;28;20643;-67
2022/11/06 08:31:07;;;;;;;7.53;2.30;;;13.10;99.90;;;;;;4995492;28;20176;-67
2022/11/06 08:33:34;;;;;;;3.77;1.90;;;13.00;99.90;;;;;;4995421;28;20647;-67
2022/11/06 08:36:05;;;;;;;6.03;2.27;;;12.90;99.90;;;;;;4995427;28;20241;-68
2022/11/06 08:38:31;;;;;;;3.83;2.00;;;13.00;99.90;;;;;;4995801;28;20183;-69
2022/11/06 08:40:56;;;;;;;6.87;2.30;;;12.90;99.90;;;;;;4995407;28;20202;-67
2022/11/06 08:43:26;;;;;;;3.53;1.87;;;12.90;99.90;;;;;;4995171;28;20187;-66
2022/11/06 08:45:52;;;;;;;5.00;2.20;;;12.90;99.90;;;;;;4993667;28;20178;-67
2022/11/06 08:48:17;;;;;;;7.07;2.23;;;12.90;99.90;;;;;;4995084;28;20579;-68
2022/11/06 08:50:43;;;;;;;3.53;2.13;;;13.00;99.90;;;;;;4995135;28;20187;-68
2022/11/06 08:53:09;;;;;;;5.47;1.83;;;13.00;99.90;;;;;;4995001;28;20646;-67
2022/11/06 08:55:37;;;;;;;6.77;2.33;;;12.80;99.90;;;;;;4995336;28;20229;-67
2022/11/06 08:58:04;;;;;;;8.83;2.27;;;12.90;99.90;;;;;;4995195;28;20179;-68
2022/11/06 09:00:30;;;;;;;4.30;2.03;;;12.70;99.90;;;;;;4994756;28;20269;-67
2022/11/06 09:03:00;;;;;;;4.07;2.20;;;12.60;99.90;;;;;;4995154;28;20541;-67
2022/11/06 09:05:27;;;;;;;6.73;2.63;;;12.60;99.90;;;;;;4994680;28;20179;-67
2022/11/06 09:07:53;;;;;;;7.00;3.00;;;12.60;99.90;;;;;;4995339;28;20187;-67
2022/11/06 09:10:18;;;;;;;5.27;2.40;;;12.60;99.90;;;;;;4995079;28;20258;-67
2022/11/06 09:12:44;;;;;;;4.10;2.60;;;12.70;99.90;;;;;;4994378;28;20183;-67
2022/11/06 09:15:10;;;;;;;4.93;2.30;;;12.70;99.90;;;;;;4994877;28;20195;-67
2022/11/06 09:17:43;;;;;;;5.37;3.07;;;12.70;99.90;;;;;;4994718;28;20183;-68
2022/11/06 09:20:09;;;;;;;3.97;2.40;;;12.80;99.90;;;;;;4994671;28;20254;-67
2022/11/06 09:22:35;;;;;;;6.27;2.77;;;12.70;99.90;;;;;;4994471;28;20301;-67
2022/11/06 09:25:00;;;;;;;5.23;2.43;;;12.80;99.90;;;;;;4994666;28;20250;-68
2022/11/06 09:27:26;;;;;;;6.53;2.70;;;12.80;99.90;;;;;;4992843;28;20257;-67
2022/11/06 09:29:51;;;;;;;6.40;2.43;;;12.90;99.90;;;;;;4994331;28;20164;-67
2022/11/06 09:32:17;;;;;;;7.27;2.47;;;12.90;99.90;;;;;;4994792;28;20695;-67
2022/11/06 09:34:42;;;;;;;7.03;2.53;;;12.90;99.90;;;;;;4993128;28;20183;-68
2022/11/06 09:37:08;;;;;;;6.60;2.57;;;12.90;99.90;;;;;;4992858;28;20210;-68
2022/11/06 09:39:34;;;;;;;4.93;2.50;;;13.10;99.90;;;;;;4994550;28;20176;-68
2022/11/06 09:42:21;;;;;;;4.90;2.27;;;13.60;99.90;;;;;;4992488;28;20211;-68
2022/11/06 09:44:56;;;;;;;6.97;2.47;;;14.10;99.90;;;;;;4994324;28;20688;-68
2022/11/06 09:47:27;;;;;;;7.27;2.30;;;14.40;99.90;;;;;;4994324;28;20283;-68
2022/11/06 09:49:55;;;;;;;5.27;2.30;;;14.30;99.90;;;;;;4994428;28;20178;-68
2022/11/06 09:52:26;;;;;;;4.93;2.10;;;14.00;99.90;;;;;;4994174;28;20175;-67
2022/11/06 09:54:59;;;;;;;5.53;2.20;;;13.90;99.90;;;;;;4992918;28;20198;-68
2022/11/06 09:57:38;;;;;;;4.17;2.10;;;13.80;99.90;;;;;;4993683;28;20635;-69
2022/11/06 10:00:06;;;;;;;3.97;2.23;;;13.60;99.90;;;;;;4993666;28;20273;-68
2022/11/06 10:02:48;;;;;;;5.97;2.10;;;13.60;99.90;;;;;;4992331;28;20245;-68
2022/11/06 10:05:40;;;;;;;4.33;2.20;;;13.40;99.90;;;;;;4993667;28;20202;-69
2022/11/06 10:08:35;;;;;;;4.80;2.37;;;13.30;99.90;;;;;;4992776;28;20184;-68
2022/11/06 10:11:21;;;;;;;4.93;2.37;;;13.30;99.90;;;;;;4971499;28;20632;-68
2022/11/06 10:13:47;;;;;;;5.53;2.67;;;13.20;99.90;;;;;;4971806;28;20188;-67
2022/11/06 10:16:40;;;;;;;3.47;1.73;;;13.20;99.90;;;;;;4971684;28;20239;-67
2022/11/06 10:19:27;;;;;;;4.43;1.90;;;13.10;99.90;;;;;;4972423;28;20172;-68
2022/11/06 10:22:14;;;;;;;4.73;2.20;;;13.20;99.90;;;;;;4971913;28;20241;-68
2022/11/06 10:25:06;;;;;;;3.97;2.10;;;13.20;99.90;;;;;;4972112;28;20180;-67
2022/11/06 10:27:39;;;;;;;5.13;2.17;;;13.00;99.90;;;;;;4971869;28;20210;-67
2022/11/06 10:30:09;;;;;;;2.93;1.67;;;13.00;99.90;;;;;;4972289;28;20668;-68
2022/11/06 10:32:56;;;;;;;5.60;2.10;;;12.90;99.90;;;;;;4971523;28;20310;-68
2022/11/06 10:35:28;;;;;;;5.30;2.00;;;12.70;99.90;;;;;;4955894;28;20270;-68
2022/11/06 10:38:09;;;;;;;6.50;2.60;;;12.80;99.90;;;;;;4971753;28;20233;-68
2022/11/06 10:40:36;;;;;;;5.70;2.03;;;12.90;99.90;;;;;;4971228;28;20223;-67
2022/11/06 10:43:25;;;;;;;9.10;2.40;;;12.80;99.90;;;;;;4971889;28;20214;-68
2022/11/06 10:45:57;;;;;;;8.37;2.30;;;12.90;99.90;;;;;;4971939;28;20227;-69
2022/11/06 10:48:28;;;;;;;9.67;2.47;;;12.90;99.90;;;;;;4991434;28;20698;-68
2022/11/06 10:51:10;;;;;;;5.40;2.30;;;13.00;99.90;;;;;;4993362;28;20179;-68
2022/11/06 10:54:06;;;;;;;5.97;2.20;;;13.10;99.90;;;;;;4993136;28;20164;-68
2022/11/06 10:56:57;;;;;;;7.90;2.10;;;13.10;99.90;;;;;;4971370;28;20202;-67
2022/11/06 10:59:23;;;;;;;5.90;2.00;;;13.10;99.90;;;;;;4970491;28;20180;-68
2022/11/06 11:01:48;;;;;;;4.87;2.17;;;13.20;99.90;;;;;;4971815;28;20734;-68
2022/11/06 11:04:14;;;;;;;5.10;2.30;;;13.30;99.90;;;;;;4971536;28;20172;-67
2022/11/06 11:06:40;;;;;;;6.67;2.23;;;13.30;99.90;;;;;;4974095;28;20224;-66
2022/11/06 11:09:35;;;;;;;5.07;2.10;;;13.30;99.90;;;;;;4974940;28;20182;-67
2022/11/06 11:12:00;;;;;;;6.23;2.30;;;13.40;99.90;;;;;;4898888;29;20237;-68
2022/11/06 11:14:28;;;;;;;4.67;2.53;;;13.50;99.90;;;;;;4898482;29;20678;-69
2022/11/06 11:16:58;;;;;;;2.33;1.93;;;13.40;99.90;;;;;;4898936;29;20194;-67
2022/11/06 11:19:24;;;;;;;4.07;2.17;;;13.30;99.90;;;;;;4899170;29;20174;-67
2022/11/06 11:21:57;;;;;;;6.10;1.90;;;13.40;99.90;;;;;;4898916;29;20263;-67
2022/11/06 11:24:24;;;;;;;4.97;1.80;;;13.30;99.90;;;;;;4898392;29;20228;-68
2022/11/06 11:27:13;;;;;;;5.37;1.83;;;13.20;99.90;;;;;;4899033;29;20191;-67
2022/11/06 11:29:44;;;;;;;9.07;1.97;;;13.20;99.90;;;;;;4899423;29;20313;-68
2022/11/06 11:32:14;;;;;;;5.30;2.20;;;13.20;99.90;;;;;;4898288;29;20233;-68
2022/11/06 11:34:46;;;;;;;8.00;2.20;;;13.30;99.90;;;;;;4934637;29;20264;-68
2022/11/06 11:37:30;;;;;;;8.47;2.10;;;13.30;99.90;;;;;;4936776;29;20244;-66
2022/11/06 11:40:35;;;;;;;4.50;1.83;;;13.20;99.90;;;;;;4935968;29;20280;-68
2022/11/06 11:43:18;;;;;;;8.30;2.20;;;13.10;99.90;;;;;;4936564;29;20611;-67
2022/11/06 11:46:02;;;;;;;5.53;2.23;;;13.20;99.90;;;;;;4936220;29;20177;-66
2022/11/06 11:48:42;;;;;;;4.57;2.30;;;13.20;99.90;;;;;;4967748;28;20262;-68
2022/11/06 11:51:28;;;;;;;11.40;2.40;;;13.10;99.90;;;;;;4996581;28;20287;-68
2022/11/06 11:53:57;;;;;;;4.73;2.17;;;13.10;99.90;;;;;;4992321;28;20183;-68
2022/11/06 11:56:25;;;;;;;4.47;2.30;;;13.00;99.90;;;;;;4996124;28;20203;-67
2022/11/06 11:58:54;;;;;;;5.27;2.40;;;12.70;99.90;;;;;;4995712;28;20167;-67
2022/11/06 12:01:36;;;;;;;6.03;2.50;;;12.70;99.90;;;;;;4996403;28;20246;-67
2022/11/06 12:04:16;;;;;;;7.20;2.20;;;12.70;99.90;;;;;;4996410;28;20183;-68
2022/11/06 12:06:58;;;;;;;8.10;2.53;;;12.60;99.90;;;;;;4996059;28;20175;-68
2022/11/06 12:09:26;;;;;;;5.17;2.33;;;12.50;99.90;;;;;;4995745;28;20171;-67
2022/11/06 12:11:53;;;;;;;4.53;2.27;;;12.40;99.90;;;;;;4995977;28;20171;-66
2022/11/06 12:14:36;;;;;;;8.60;2.53;;;12.40;99.90;;;;;;4995464;28;20615;-68
2022/11/06 12:17:14;;;;;;;5.43;2.37;;;12.30;99.90;;;;;;4995387;28;20640;-68
2022/11/06 12:19:43;;;;;;;7.03;2.50;;;12.10;99.90;;;;;;4996417;28;20179;-68
2022/11/06 12:22:19;;;;;;;7.17;2.50;;;12.10;99.90;;;;;;4995147;28;20211;-68
2022/11/06 12:25:01;;;;;;;6.93;2.30;;;12.00;99.90;;;;;;4995755;28;20167;-68
2022/11/06 12:27:34;;;;;;;7.47;2.83;;;11.90;99.90;;;;;;4995721;28;20669;-69
2022/11/06 12:30:05;;;;;;;6.13;2.30;;;12.00;99.90;;;;;;4995872;28;20527;-68
2022/11/06 12:32:59;;;;;;;5.00;2.40;;;11.90;99.90;;;;;;4993398;28;20226;-69
2022/11/06 12:35:31;;;;;;;4.77;2.50;;;11.80;99.90;;;;;;4995390;28;20226;-68
2022/11/06 12:38:15;;;;;;;3.57;2.47;;;11.80;99.90;;;;;;4994973;28;20163;-67
2022/11/06 12:40:47;;;;;;;7.50;3.10;;;11.70;99.90;;;;;;4995173;28;20195;-68
2022/11/06 12:43:42;;;;;;;5.47;2.20;;;11.70;99.90;;;;;;4995513;28;20635;-68
2022/11/06 12:46:17;;;;;;;5.30;2.70;;;11.60;99.90;;;;;;4995172;28;20749;-69
2022/11/06 12:48:56;;;;;;;6.50;2.73;;;11.60;99.90;;;;;;4995048;28;20174;-68
2022/11/06 12:51:39;;;;;;;5.47;2.83;;;11.50;99.90;;;;;;4994814;28;20183;-68
2022/11/06 12:54:29;;;;;;;5.30;2.60;;;11.40;99.90;;;;;;4994975;28;20168;-68
2022/11/06 12:57:12;;;;;;;4.27;2.20;;;11.40;99.90;;;;;;4995366;28;20529;-68
2022/11/06 13:00:00;;;;;;;7.40;3.10;;;11.30;99.90;;;;;;4994817;28;20159;-67
2022/11/06 13:02:25;;;;;;;6.87;2.37;;;11.30;99.90;;;;;;4995170;28;20218;-68
2022/11/06 13:05:18;;;;;;;5.70;2.43;;;11.30;99.90;;;;;;4994910;28;20627;-68
2022/11/06 13:08:10;;;;;;;6.63;2.90;;;11.20;99.90;;;;;;4994567;28;20238;-67
2022/11/06 13:10:43;;;;;;;7.03;3.07;;;11.30;99.90;;;;;;4994393;28;20199;-67
2022/11/06 13:13:51;;;;;;;5.53;2.60;;;11.30;99.90;;;;;;4995195;28;20178;-67
2022/11/06 13:16:46;;;;;;;5.43;2.90;;;11.30;99.90;;;;;;4994747;28;20167;-67
2022/11/06 13:19:20;;;;;;;4.47;2.50;;;11.20;99.90;;;;;;4994577;28;20722;-67
2022/11/06 13:22:10;;;;;;;4.97;2.77;;;11.10;99.90;;;;;;4994594;28;20207;-66